createdAt,value
2022-12-29T06:49:52.947Z,11.30
2022-12-29T06:52:54.826Z,11.50
2022-12-29T06:55:57.581Z,11.80
2022-12-29T06:59:01.128Z,12.00
2022-12-29T07:02:03.541Z,11.90
2022-12-29T07:05:05.820Z,11.90
2022-12-29T07:08:07.511Z,11.90
2022-12-29T07:11:09.676Z,12.00
2022-12-29T07:14:12.732Z,12.10
2022-12-29T07:17:14.382Z,12.10
2022-12-29T07:20:17.766Z,12.20
2022-12-29T07:23:22.597Z,12.20
2022-12-29T07:26:24.367Z,12.30
2022-12-29T07:29:26.020Z,12.40
2022-12-29T07:32:27.760Z,12.40
2022-12-29T07:35:29.653Z,12.40
2022-12-29T07:38:31.299Z,12.40
2022-12-29T07:41:32.978Z,12.40
2022-12-29T07:44:34.628Z,12.30
2022-12-29T07:47:36.459Z,12.40
2022-12-29T07:50:38.559Z,12.50
2022-12-29T07:53:40.251Z,12.50
2022-12-29T07:56:42.133Z,12.50
2022-12-29T07:59:44.422Z,12.50
2022-12-29T08:02:46.124Z,12.50
2022-12-29T08:05:47.900Z,12.50
2022-12-29T08:08:49.528Z,12.50
2022-12-29T08:11:51.653Z,12.50
2022-12-29T08:14:53.368Z,12.50
2022-12-29T08:17:55.410Z,12.50
2022-12-29T08:21:01.784Z,12.60
2022-12-29T08:24:03.965Z,12.60
2022-12-29T08:27:13.354Z,12.70
2022-12-29T08:30:21.451Z,12.70
2022-12-29T08:33:23.092Z,12.70
2022-12-29T08:36:25.871Z,12.70
2022-12-29T08:39:28.645Z,12.80
2022-12-29T08:42:32.663Z,12.90
2022-12-29T08:45:34.482Z,12.80
2022-12-29T08:48:36.425Z,12.90
2022-12-29T08:51:38.101Z,13.00
2022-12-29T08:54:39.981Z,13.00
2022-12-29T08:57:41.701Z,13.00
2022-12-29T09:00:43.931Z,13.00
2022-12-29T09:04:13.490Z,12.90
2022-12-29T09:07:07.853Z,12.90
2022-12-29T09:10:09.805Z,13.00
2022-12-29T09:13:12.740Z,13.10
2022-12-29T09:16:15.284Z,13.10
2022-12-29T09:19:16.990Z,13.00
2022-12-29T09:22:18.681Z,13.10
2022-12-29T09:25:20.888Z,13.10
2022-12-29T09:28:23.541Z,13.10
2022-12-29T09:31:26.177Z,13.00
2022-12-29T09:34:28.132Z,13.00
2022-12-29T09:37:29.821Z,13.00
2022-12-29T09:40:33.781Z,13.10
2022-12-29T09:43:52.171Z,13.00
2022-12-29T09:46:56.487Z,13.20
2022-12-29T09:50:17.785Z,13.10
2022-12-29T09:53:30.660Z,13.10
2022-12-29T09:56:32.421Z,12.90
2022-12-29T09:59:41.752Z,12.90
2022-12-29T10:02:53.064Z,12.80
2022-12-29T10:06:18.725Z,13.00
2022-12-29T10:09:35.679Z,13.40
2022-12-29T10:13:17.202Z,13.50
2022-12-29T10:16:27.883Z,13.70
2022-12-29T10:19:42.710Z,13.40
2022-12-29T10:23:14.926Z,13.30
2022-12-29T10:26:20.039Z,13.10
2022-12-29T10:29:26.730Z,13.10
2022-12-29T10:32:35.697Z,13.50
2022-12-29T10:35:41.389Z,13.40
2022-12-29T10:39:02.876Z,13.50
2022-12-29T10:42:14.887Z,13.60
2022-12-29T10:45:19.000Z,14.50
2022-12-29T10:48:30.113Z,15.30
2022-12-29T10:51:39.317Z,14.70
2022-12-29T10:54:52.481Z,14.40
2022-12-29T10:57:55.607Z,14.50
2022-12-29T11:00:57.450Z,14.30
2022-12-29T11:04:04.977Z,13.90
2022-12-29T11:07:13.334Z,13.90
2022-12-29T11:10:29.682Z,13.60
2022-12-29T11:13:38.931Z,13.60
2022-12-29T11:16:42.749Z,13.70
2022-12-29T11:19:44.640Z,13.40
2022-12-29T11:22:46.576Z,13.40
2022-12-29T11:26:22.391Z,13.40
2022-12-29T11:29:29.178Z,13.20
2022-12-29T11:32:30.860Z,13.30
2022-12-29T11:35:40.001Z,13.50
2022-12-29T11:38:47.646Z,13.30
2022-12-29T11:41:53.766Z,13.50
2022-12-29T11:44:55.416Z,13.30
2022-12-29T11:48:02.022Z,12.90
2022-12-29T11:51:03.985Z,12.70
2022-12-29T11:54:06.600Z,12.70
2022-12-29T11:57:15.930Z,13.00
2022-12-29T12:00:25.986Z,13.40
2022-12-29T12:03:31.417Z,13.60
2022-12-29T12:06:38.699Z,13.50
2022-12-29T12:09:51.332Z,13.60
2022-12-29T12:13:02.576Z,13.60
2022-12-29T12:16:27.555Z,13.40
2022-12-29T12:19:45.488Z,13.40
2022-12-29T12:23:03.169Z,13.00
2022-12-29T12:26:13.325Z,13.00
2022-12-29T12:29:22.048Z,12.80
2022-12-29T12:32:46.349Z,12.70
2022-12-29T12:36:15.193Z,12.70
2022-12-29T12:39:50.507Z,12.90
2022-12-29T12:43:07.753Z,13.10
2022-12-29T12:46:49.457Z,12.70
2022-12-29T12:50:23.239Z,12.80
2022-12-29T12:53:39.785Z,13.00
2022-12-29T12:56:56.697Z,13.00
2022-12-29T13:00:13.232Z,13.00
2022-12-29T13:03:25.012Z,12.90
2022-12-29T13:07:06.676Z,13.00
2022-12-29T13:10:38.591Z,13.10
2022-12-29T13:13:51.000Z,13.10
2022-12-29T13:17:17.326Z,13.00
2022-12-29T13:20:57.592Z,13.10
2022-12-29T13:24:29.852Z,13.20
2022-12-29T13:27:57.500Z,13.00
2022-12-29T13:31:16.276Z,12.80
2022-12-29T13:34:47.371Z,12.90
2022-12-29T13:38:02.034Z,12.70
2022-12-29T13:41:09.535Z,12.70
2022-12-29T13:44:18.841Z,12.70
2022-12-29T13:47:33.333Z,12.60
2022-12-29T13:50:39.380Z,12.60
2022-12-29T13:54:00.683Z,12.70
2022-12-29T13:57:15.991Z,12.70
2022-12-29T14:00:21.361Z,12.50
2022-12-29T14:03:49.120Z,12.50
2022-12-29T14:07:14.217Z,12.50
2022-12-29T14:10:38.958Z,12.50
2022-12-29T14:13:43.406Z,12.60
2022-12-29T14:16:46.760Z,12.60
2022-12-29T14:19:53.461Z,12.60
2022-12-29T14:22:59.016Z,12.70
2022-12-29T14:26:35.538Z,12.70
2022-12-29T14:29:40.557Z,12.70
2022-12-29T14:33:03.053Z,12.70
2022-12-29T14:36:22.599Z,12.70
2022-12-29T14:39:45.621Z,12.50
2022-12-29T14:42:48.898Z,12.50
2022-12-29T14:45:58.039Z,12.40
2022-12-29T14:49:02.110Z,12.30
2022-12-29T14:52:16.327Z,12.20
2022-12-29T14:55:19.091Z,12.10
2022-12-29T14:58:44.287Z,12.10
2022-12-29T15:01:53.117Z,11.90
2022-12-29T15:05:01.126Z,11.20
2022-12-29T15:08:04.902Z,10.60
2022-12-29T15:11:21.329Z,10.20
2022-12-29T15:14:36.138Z,9.90
2022-12-29T15:17:39.559Z,9.90
2022-12-29T15:20:43.002Z,9.80
2022-12-29T15:23:46.491Z,9.70
2022-12-29T15:26:52.836Z,9.70
2022-12-29T15:30:04.008Z,9.70
2022-12-29T15:33:19.747Z,9.60
2022-12-29T15:36:25.192Z,9.60
2022-12-29T15:39:31.999Z,9.50
2022-12-29T15:43:02.406Z,9.40
2022-12-29T15:46:04.512Z,9.40
2022-12-29T15:49:09.438Z,9.40
2022-12-29T15:52:11.771Z,9.30
2022-12-29T15:55:35.812Z,9.40
2022-12-29T15:58:47.510Z,9.40
2022-12-29T16:01:49.458Z,9.40
2022-12-29T16:08:23.013Z,9.40
2022-12-29T16:11:30.724Z,9.40
2022-12-29T16:14:46.445Z,9.40
2022-12-29T16:17:52.595Z,9.50
2022-12-29T16:20:55.645Z,9.40
2022-12-29T16:24:02.956Z,9.30
2022-12-29T16:27:15.229Z,9.30
2022-12-29T16:30:31.183Z,9.30
2022-12-29T16:33:41.063Z,9.30
2022-12-29T16:37:01.392Z,9.30
2022-12-29T16:40:31.711Z,9.10
2022-12-29T16:43:42.660Z,9.20
2022-12-29T16:47:08.336Z,9.30
2022-12-29T16:50:20.218Z,9.40
2022-12-29T16:53:32.457Z,9.40
2022-12-29T16:56:37.185Z,9.30
2022-12-29T16:59:43.604Z,9.30
